McConnells, South Carolina
Current Conditions -  °F | °C
As of 7:15 AM on Sunday 23 Nov 2014 (Local Time) from KDCM Reporting Station
Light Rain Light Rain  
Wind Chill: 42°   Ceiling: 800
Heat Index: 45°   Visibility: 3mi
Dew Point: 43°   Wind: 5mph
Humidity: 93%   Direction: 50°NE
Pressure: 30.21"   Gusts: NA
Location:  34.87°N, 81.23°W
Report Text: KDCM 231215Z AUTO 05004KT 3SM -RA OVC008 07/06 A3021 RMK AO2 P0001
Loading
Personal Weather Stations






























Interactive Weather Map New forecast layout! Learn more

10-Day Weather Forecast

Advertisements
Track Severe Weather on mobile